sensor_id;sensor_type;location;lat;lon;timestamp;P1;durP1;ratioP1;P2;durP2;ratioP2
78985;SDS011;68384;55.750;48.746;2024-03-25T00:00:25;35.85;;;17.42;;
78985;SDS011;68384;55.750;48.746;2024-03-25T00:01:27;39.90;;;18.80;;
78985;SDS011;68384;55.750;48.746;2024-03-25T00:02:28;33.45;;;16.00;;
78985;SDS011;68384;55.750;48.746;2024-03-25T00:03:29;35.20;;;17.42;;
78985;SDS011;68384;55.750;48.746;2024-03-25T00:04:30;34.85;;;18.27;;
78985;SDS011;68384;55.750;48.746;2024-03-25T00:05:31;39.17;;;17.17;;
78985;SDS011;68384;55.750;48.746;2024-03-25T00:06:32;38.78;;;19.50;;
78985;SDS011;68384;55.750;48.746;2024-03-25T00:07:34;38.00;;;19.73;;
78985;SDS011;68384;55.750;48.746;2024-03-25T00:08:35;40.20;;;18.67;;
78985;SDS011;68384;55.750;48.746;2024-03-25T00:09:37;37.30;;;17.10;;
78985;SDS011;68384;55.750;48.746;2024-03-25T00:10:38;39.33;;;17.75;;
78985;SDS011;68384;55.750;48.746;2024-03-25T00:11:40;38.70;;;18.63;;
78985;SDS011;68384;55.750;48.746;2024-03-25T00:12:42;36.90;;;17.35;;
78985;SDS011;68384;55.750;48.746;2024-03-25T00:13:44;40.58;;;18.98;;
78985;SDS011;68384;55.750;48.746;2024-03-25T00:14:45;42.10;;;16.98;;
78985;SDS011;68384;55.750;48.746;2024-03-25T00:15:46;40.50;;;18.63;;
78985;SDS011;68384;55.750;48.746;2024-03-25T00:16:48;38.85;;;18.95;;
78985;SDS011;68384;55.750;48.746;2024-03-25T00:17:49;37.33;;;18.40;;
78985;SDS011;68384;55.750;48.746;2024-03-25T00:18:51;34.88;;;17.75;;
78985;SDS011;68384;55.750;48.746;2024-03-25T00:19:52;40.60;;;18.65;;
78985;SDS011;68384;55.750;48.746;2024-03-25T00:20:53;39.60;;;20.05;;
78985;SDS011;68384;55.750;48.746;2024-03-25T00:21:54;39.58;;;18.88;;
78985;SDS011;68384;55.750;48.746;2024-03-25T00:22:55;43.92;;;19.38;;
78985;SDS011;68384;55.750;48.746;2024-03-25T00:23:56;42.35;;;19.30;;
78985;SDS011;68384;55.750;48.746;2024-03-25T00:24:57;39.97;;;19.10;;
78985;SDS011;68384;55.750;48.746;2024-03-25T00:25:59;41.28;;;18.67;;
78985;SDS011;68384;55.750;48.746;2024-03-25T00:27:00;44.13;;;19.00;;
78985;SDS011;68384;55.750;48.746;2024-03-25T00:28:01;42.30;;;18.73;;
78985;SDS011;68384;55.750;48.746;2024-03-25T00:29:02;41.42;;;18.65;;
78985;SDS011;68384;55.750;48.746;2024-03-25T00:30:04;38.83;;;19.15;;
78985;SDS011;68384;55.750;48.746;2024-03-25T00:31:06;38.85;;;18.15;;
78985;SDS011;68384;55.750;48.746;2024-03-25T00:32:08;40.63;;;18.75;;
78985;SDS011;68384;55.750;48.746;2024-03-25T00:33:09;42.55;;;18.60;;
78985;SDS011;68384;55.750;48.746;2024-03-25T00:34:11;41.60;;;18.95;;
78985;SDS011;68384;55.750;48.746;2024-03-25T00:35:13;38.25;;;19.30;;
78985;SDS011;68384;55.750;48.746;2024-03-25T00:36:14;38.20;;;19.02;;
78985;SDS011;68384;55.750;48.746;2024-03-25T00:37:15;43.30;;;18.83;;
78985;SDS011;68384;55.750;48.746;2024-03-25T00:38:16;43.53;;;18.42;;
78985;SDS011;68384;55.750;48.746;2024-03-25T00:39:17;48.35;;;19.48;;
78985;SDS011;68384;55.750;48.746;2024-03-25T00:40:19;42.88;;;19.60;;
78985;SDS011;68384;55.750;48.746;2024-03-25T00:41:21;44.15;;;20.20;;
78985;SDS011;68384;55.750;48.746;2024-03-25T00:42:22;43.95;;;19.85;;
78985;SDS011;68384;55.750;48.746;2024-03-25T00:43:23;45.08;;;19.35;;
78985;SDS011;68384;55.750;48.746;2024-03-25T00:44:24;46.80;;;20.20;;
78985;SDS011;68384;55.750;48.746;2024-03-25T00:45:25;46.08;;;19.63;;
78985;SDS011;68384;55.750;48.746;2024-03-25T00:46:31;49.53;;;19.73;;
78985;SDS011;68384;55.750;48.746;2024-03-25T00:47:32;48.65;;;20.05;;
78985;SDS011;68384;55.750;48.746;2024-03-25T00:48:33;46.47;;;20.63;;
78985;SDS011;68384;55.750;48.746;2024-03-25T00:49:35;40.70;;;19.67;;
78985;SDS011;68384;55.750;48.746;2024-03-25T00:50:36;41.63;;;19.00;;
78985;SDS011;68384;55.750;48.746;2024-03-25T00:51:37;44.83;;;19.42;;
78985;SDS011;68384;55.750;48.746;2024-03-25T00:52:38;43.22;;;19.20;;
78985;SDS011;68384;55.750;48.746;2024-03-25T00:53:39;40.90;;;19.65;;
78985;SDS011;68384;55.750;48.746;2024-03-25T00:54:41;43.65;;;19.75;;
78985;SDS011;68384;55.750;48.746;2024-03-25T00:55:42;46.33;;;19.08;;
78985;SDS011;68384;55.750;48.746;2024-03-25T00:56:43;38.65;;;18.15;;
78985;SDS011;68384;55.750;48.746;2024-03-25T00:57:45;46.40;;;19.80;;
78985;SDS011;68384;55.750;48.746;2024-03-25T00:58:46;43.13;;;19.50;;
78985;SDS011;68384;55.750;48.746;2024-03-25T00:59:47;48.10;;;21.10;;
78985;SDS011;68384;55.750;48.746;2024-03-25T01:00:48;42.55;;;20.58;;
78985;SDS011;68384;55.750;48.746;2024-03-25T01:01:49;45.13;;;20.08;;
78985;SDS011;68384;55.750;48.746;2024-03-25T01:02:51;43.45;;;19.75;;
78985;SDS011;68384;55.750;48.746;2024-03-25T01:03:52;42.85;;;20.52;;
78985;SDS011;68384;55.750;48.746;2024-03-25T01:04:53;43.38;;;20.80;;
78985;SDS011;68384;55.750;48.746;2024-03-25T01:05:55;43.28;;;20.33;;
78985;SDS011;68384;55.750;48.746;2024-03-25T01:06:56;48.17;;;21.65;;
78985;SDS011;68384;55.750;48.746;2024-03-25T01:07:57;47.95;;;19.77;;
78985;SDS011;68384;55.750;48.746;2024-03-25T01:08:58;40.20;;;18.13;;
78985;SDS011;68384;55.750;48.746;2024-03-25T01:09:59;43.00;;;21.15;;
78985;SDS011;68384;55.750;48.746;2024-03-25T01:11:01;41.70;;;19.63;;
78985;SDS011;68384;55.750;48.746;2024-03-25T01:12:02;42.67;;;18.95;;
78985;SDS011;68384;55.750;48.746;2024-03-25T01:13:03;47.35;;;20.13;;
78985;SDS011;68384;55.750;48.746;2024-03-25T01:14:04;46.33;;;20.45;;
78985;SDS011;68384;55.750;48.746;2024-03-25T01:15:06;42.47;;;19.42;;
78985;SDS011;68384;55.750;48.746;2024-03-25T01:16:08;44.90;;;19.95;;
78985;SDS011;68384;55.750;48.746;2024-03-25T01:17:10;45.58;;;20.70;;
78985;SDS011;68384;55.750;48.746;2024-03-25T01:18:11;46.25;;;20.92;;
78985;SDS011;68384;55.750;48.746;2024-03-25T01:19:13;45.83;;;19.88;;
78985;SDS011;68384;55.750;48.746;2024-03-25T01:20:14;44.85;;;21.10;;
78985;SDS011;68384;55.750;48.746;2024-03-25T01:21:15;44.65;;;20.60;;
78985;SDS011;68384;55.750;48.746;2024-03-25T01:22:16;39.08;;;18.08;;
78985;SDS011;68384;55.750;48.746;2024-03-25T01:23:17;45.63;;;20.00;;
78985;SDS011;68384;55.750;48.746;2024-03-25T01:24:18;46.03;;;19.92;;
78985;SDS011;68384;55.750;48.746;2024-03-25T01:25:20;41.50;;;20.88;;
78985;SDS011;68384;55.750;48.746;2024-03-25T01:26:21;39.08;;;19.05;;
78985;SDS011;68384;55.750;48.746;2024-03-25T01:27:23;45.63;;;19.83;;
78985;SDS011;68384;55.750;48.746;2024-03-25T01:28:24;37.30;;;18.63;;
78985;SDS011;68384;55.750;48.746;2024-03-25T01:29:26;41.30;;;19.50;;
78985;SDS011;68384;55.750;48.746;2024-03-25T01:30:28;42.38;;;20.63;;
78985;SDS011;68384;55.750;48.746;2024-03-25T01:31:30;38.08;;;18.58;;
78985;SDS011;68384;55.750;48.746;2024-03-25T01:32:31;41.13;;;19.20;;
78985;SDS011;68384;55.750;48.746;2024-03-25T01:33:33;44.38;;;19.83;;
78985;SDS011;68384;55.750;48.746;2024-03-25T01:34:35;44.25;;;20.90;;
78985;SDS011;68384;55.750;48.746;2024-03-25T01:35:36;43.67;;;19.98;;
78985;SDS011;68384;55.750;48.746;2024-03-25T01:36:37;42.65;;;18.95;;
78985;SDS011;68384;55.750;48.746;2024-03-25T01:37:40;49.22;;;20.55;;
78985;SDS011;68384;55.750;48.746;2024-03-25T01:38:42;42.08;;;18.13;;
78985;SDS011;68384;55.750;48.746;2024-03-25T01:39:43;42.03;;;19.75;;
78985;SDS011;68384;55.750;48.746;2024-03-25T01:40:44;40.75;;;19.45;;
78985;SDS011;68384;55.750;48.746;2024-03-25T01:41:46;35.80;;;18.30;;
78985;SDS011;68384;55.750;48.746;2024-03-25T01:42:56;40.83;;;18.75;;
78985;SDS011;68384;55.750;48.746;2024-03-25T01:44:01;36.60;;;18.00;;
78985;SDS011;68384;55.750;48.746;2024-03-25T01:45:03;42.38;;;19.95;;
78985;SDS011;68384;55.750;48.746;2024-03-25T01:46:04;40.63;;;19.70;;
78985;SDS011;68384;55.750;48.746;2024-03-25T01:47:06;43.25;;;19.95;;
78985;SDS011;68384;55.750;48.746;2024-03-25T01:48:08;43.65;;;18.25;;
78985;SDS011;68384;55.750;48.746;2024-03-25T01:49:13;45.90;;;20.95;;
78985;SDS011;68384;55.750;48.746;2024-03-25T01:50:15;46.00;;;20.05;;
78985;SDS011;68384;55.750;48.746;2024-03-25T01:51:17;45.47;;;19.98;;
78985;SDS011;68384;55.750;48.746;2024-03-25T01:52:21;36.63;;;18.58;;
78985;SDS011;68384;55.750;48.746;2024-03-25T01:53:23;37.35;;;17.63;;
78985;SDS011;68384;55.750;48.746;2024-03-25T01:54:25;38.67;;;18.70;;
78985;SDS011;68384;55.750;48.746;2024-03-25T01:55:28;41.78;;;19.60;;
78985;SDS011;68384;55.750;48.746;2024-03-25T01:56:32;42.97;;;18.95;;
78985;SDS011;68384;55.750;48.746;2024-03-25T01:57:34;43.60;;;18.05;;
78985;SDS011;68384;55.750;48.746;2024-03-25T01:58:35;40.35;;;19.65;;
78985;SDS011;68384;55.750;48.746;2024-03-25T01:59:38;41.97;;;19.80;;
78985;SDS011;68384;55.750;48.746;2024-03-25T02:00:40;42.60;;;19.85;;
78985;SDS011;68384;55.750;48.746;2024-03-25T02:01:42;34.38;;;17.58;;
78985;SDS011;68384;55.750;48.746;2024-03-25T02:02:46;39.38;;;19.45;;
78985;SDS011;68384;55.750;48.746;2024-03-25T02:03:48;42.90;;;19.88;;
78985;SDS011;68384;55.750;48.746;2024-03-25T02:04:49;40.03;;;20.48;;
78985;SDS011;68384;55.750;48.746;2024-03-25T02:05:52;42.83;;;19.55;;
78985;SDS011;68384;55.750;48.746;2024-03-25T02:06:57;40.58;;;18.67;;
78985;SDS011;68384;55.750;48.746;2024-03-25T02:08:01;38.55;;;18.77;;
78985;SDS011;68384;55.750;48.746;2024-03-25T02:09:04;38.95;;;18.80;;
78985;SDS011;68384;55.750;48.746;2024-03-25T02:10:06;37.28;;;18.38;;
78985;SDS011;68384;55.750;48.746;2024-03-25T02:11:11;42.45;;;18.95;;
78985;SDS011;68384;55.750;48.746;2024-03-25T02:12:13;40.17;;;19.40;;
78985;SDS011;68384;55.750;48.746;2024-03-25T02:13:15;45.42;;;20.10;;
78985;SDS011;68384;55.750;48.746;2024-03-25T02:14:16;42.58;;;19.20;;
78985;SDS011;68384;55.750;48.746;2024-03-25T02:15:17;41.08;;;20.02;;
78985;SDS011;68384;55.750;48.746;2024-03-25T02:16:19;39.95;;;17.77;;
78985;SDS011;68384;55.750;48.746;2024-03-25T02:17:41;37.08;;;17.42;;
78985;SDS011;68384;55.750;48.746;2024-03-25T02:18:42;37.67;;;18.55;;
78985;SDS011;68384;55.750;48.746;2024-03-25T02:19:43;45.63;;;19.00;;
78985;SDS011;68384;55.750;48.746;2024-03-25T02:20:45;38.42;;;18.75;;
78985;SDS011;68384;55.750;48.746;2024-03-25T02:21:46;36.10;;;17.35;;
78985;SDS011;68384;55.750;48.746;2024-03-25T02:22:47;38.95;;;18.83;;
78985;SDS011;68384;55.750;48.746;2024-03-25T02:23:49;41.67;;;19.00;;
78985;SDS011;68384;55.750;48.746;2024-03-25T02:24:54;35.28;;;18.23;;
78985;SDS011;68384;55.750;48.746;2024-03-25T02:25:57;37.17;;;19.05;;
78985;SDS011;68384;55.750;48.746;2024-03-25T02:26:58;42.35;;;20.42;;
78985;SDS011;68384;55.750;48.746;2024-03-25T02:28:00;43.85;;;18.63;;
78985;SDS011;68384;55.750;48.746;2024-03-25T02:29:01;37.53;;;18.80;;
78985;SDS011;68384;55.750;48.746;2024-03-25T02:30:09;37.97;;;18.05;;
78985;SDS011;68384;55.750;48.746;2024-03-25T02:31:13;40.95;;;17.50;;
78985;SDS011;68384;55.750;48.746;2024-03-25T02:32:14;37.15;;;15.80;;
78985;SDS011;68384;55.750;48.746;2024-03-25T02:33:16;34.58;;;18.02;;
78985;SDS011;68384;55.750;48.746;2024-03-25T02:34:17;41.97;;;19.17;;
78985;SDS011;68384;55.750;48.746;2024-03-25T02:35:18;38.33;;;18.63;;
78985;SDS011;68384;55.750;48.746;2024-03-25T02:36:19;37.75;;;18.98;;
78985;SDS011;68384;55.750;48.746;2024-03-25T02:37:20;37.53;;;18.08;;
78985;SDS011;68384;55.750;48.746;2024-03-25T02:38:21;37.05;;;18.63;;
78985;SDS011;68384;55.750;48.746;2024-03-25T02:39:23;39.22;;;18.88;;
78985;SDS011;68384;55.750;48.746;2024-03-25T02:40:25;40.65;;;18.77;;
78985;SDS011;68384;55.750;48.746;2024-03-25T02:41:26;38.85;;;19.02;;
78985;SDS011;68384;55.750;48.746;2024-03-25T02:42:30;38.88;;;19.35;;
78985;SDS011;68384;55.750;48.746;2024-03-25T02:43:33;38.85;;;17.98;;
78985;SDS011;68384;55.750;48.746;2024-03-25T02:44:34;39.08;;;17.80;;
78985;SDS011;68384;55.750;48.746;2024-03-25T02:45:35;38.78;;;19.27;;
78985;SDS011;68384;55.750;48.746;2024-03-25T02:46:38;37.42;;;18.45;;
78985;SDS011;68384;55.750;48.746;2024-03-25T02:47:41;35.38;;;17.38;;
78985;SDS011;68384;55.750;48.746;2024-03-25T02:48:42;36.20;;;19.00;;
78985;SDS011;68384;55.750;48.746;2024-03-25T02:49:43;36.97;;;18.27;;
78985;SDS011;68384;55.750;48.746;2024-03-25T02:50:44;39.53;;;19.40;;
78985;SDS011;68384;55.750;48.746;2024-03-25T02:51:46;34.80;;;17.48;;
78985;SDS011;68384;55.750;48.746;2024-03-25T02:52:47;39.67;;;19.83;;
78985;SDS011;68384;55.750;48.746;2024-03-25T02:53:48;35.70;;;19.50;;
78985;SDS011;68384;55.750;48.746;2024-03-25T02:54:50;39.58;;;19.42;;
78985;SDS011;68384;55.750;48.746;2024-03-25T02:55:52;40.22;;;18.58;;
78985;SDS011;68384;55.750;48.746;2024-03-25T02:56:53;43.15;;;18.48;;
78985;SDS011;68384;55.750;48.746;2024-03-25T02:57:54;33.20;;;18.25;;
78985;SDS011;68384;55.750;48.746;2024-03-25T02:58:55;40.60;;;18.23;;
78985;SDS011;68384;55.750;48.746;2024-03-25T02:59:56;34.55;;;18.58;;
78985;SDS011;68384;55.750;48.746;2024-03-25T03:00:58;41.10;;;18.55;;
78985;SDS011;68384;55.750;48.746;2024-03-25T03:01:59;37.08;;;19.25;;
78985;SDS011;68384;55.750;48.746;2024-03-25T03:03:00;35.45;;;16.92;;
78985;SDS011;68384;55.750;48.746;2024-03-25T03:04:01;41.17;;;20.45;;
78985;SDS011;68384;55.750;48.746;2024-03-25T03:05:02;34.88;;;18.00;;
78985;SDS011;68384;55.750;48.746;2024-03-25T03:06:05;36.22;;;17.83;;
78985;SDS011;68384;55.750;48.746;2024-03-25T03:07:06;37.40;;;17.15;;
78985;SDS011;68384;55.750;48.746;2024-03-25T03:08:07;38.28;;;18.77;;
78985;SDS011;68384;55.750;48.746;2024-03-25T03:09:08;42.78;;;18.77;;
78985;SDS011;68384;55.750;48.746;2024-03-25T03:10:09;34.30;;;18.83;;
78985;SDS011;68384;55.750;48.746;2024-03-25T03:11:10;39.28;;;18.67;;
78985;SDS011;68384;55.750;48.746;2024-03-25T03:12:12;37.20;;;18.52;;
78985;SDS011;68384;55.750;48.746;2024-03-25T03:13:13;39.08;;;18.83;;
78985;SDS011;68384;55.750;48.746;2024-03-25T03:14:14;37.45;;;17.58;;
78985;SDS011;68384;55.750;48.746;2024-03-25T03:15:15;36.17;;;18.25;;
78985;SDS011;68384;55.750;48.746;2024-03-25T03:16:17;36.10;;;18.40;;
78985;SDS011;68384;55.750;48.746;2024-03-25T03:17:18;35.15;;;17.50;;
78985;SDS011;68384;55.750;48.746;2024-03-25T03:18:19;35.13;;;19.13;;
78985;SDS011;68384;55.750;48.746;2024-03-25T03:19:21;34.90;;;18.83;;
78985;SDS011;68384;55.750;48.746;2024-03-25T03:20:22;31.25;;;17.33;;
78985;SDS011;68384;55.750;48.746;2024-03-25T03:21:23;38.00;;;18.23;;
78985;SDS011;68384;55.750;48.746;2024-03-25T03:22:24;37.10;;;18.73;;
78985;SDS011;68384;55.750;48.746;2024-03-25T03:23:25;32.50;;;17.75;;
78985;SDS011;68384;55.750;48.746;2024-03-25T03:24:26;33.00;;;18.08;;
78985;SDS011;68384;55.750;48.746;2024-03-25T03:25:28;36.67;;;19.08;;
78985;SDS011;68384;55.750;48.746;2024-03-25T03:26:31;38.65;;;18.10;;
78985;SDS011;68384;55.750;48.746;2024-03-25T03:27:32;38.40;;;18.38;;
78985;SDS011;68384;55.750;48.746;2024-03-25T03:28:33;35.45;;;18.35;;
78985;SDS011;68384;55.750;48.746;2024-03-25T03:29:35;38.20;;;19.38;;
78985;SDS011;68384;55.750;48.746;2024-03-25T03:30:36;35.10;;;16.73;;
78985;SDS011;68384;55.750;48.746;2024-03-25T03:31:37;40.15;;;18.38;;
78985;SDS011;68384;55.750;48.746;2024-03-25T03:32:38;35.63;;;18.17;;
78985;SDS011;68384;55.750;48.746;2024-03-25T03:33:39;32.58;;;17.25;;
78985;SDS011;68384;55.750;48.746;2024-03-25T03:34:40;33.97;;;17.33;;
78985;SDS011;68384;55.750;48.746;2024-03-25T03:35:42;39.67;;;17.98;;
78985;SDS011;68384;55.750;48.746;2024-03-25T03:36:43;34.45;;;18.02;;
78985;SDS011;68384;55.750;48.746;2024-03-25T03:37:44;35.17;;;17.15;;
78985;SDS011;68384;55.750;48.746;2024-03-25T03:38:46;34.70;;;18.30;;
78985;SDS011;68384;55.750;48.746;2024-03-25T03:39:47;33.42;;;17.05;;
78985;SDS011;68384;55.750;48.746;2024-03-25T03:40:58;30.83;;;17.33;;
78985;SDS011;68384;55.750;48.746;2024-03-25T03:42:02;34.75;;;17.38;;
78985;SDS011;68384;55.750;48.746;2024-03-25T03:43:04;36.80;;;18.13;;
78985;SDS011;68384;55.750;48.746;2024-03-25T03:44:05;34.47;;;18.15;;
78985;SDS011;68384;55.750;48.746;2024-03-25T03:45:07;30.17;;;16.33;;
78985;SDS011;68384;55.750;48.746;2024-03-25T03:46:08;32.50;;;17.48;;
78985;SDS011;68384;55.750;48.746;2024-03-25T03:47:09;32.70;;;17.15;;
78985;SDS011;68384;55.750;48.746;2024-03-25T03:48:10;34.60;;;18.00;;
78985;SDS011;68384;55.750;48.746;2024-03-25T03:49:11;34.47;;;18.40;;
78985;SDS011;68384;55.750;48.746;2024-03-25T03:50:12;35.45;;;18.75;;
78985;SDS011;68384;55.750;48.746;2024-03-25T03:51:14;40.60;;;18.63;;
78985;SDS011;68384;55.750;48.746;2024-03-25T03:52:15;33.95;;;17.13;;
78985;SDS011;68384;55.750;48.746;2024-03-25T03:53:16;34.35;;;18.70;;
78985;SDS011;68384;55.750;48.746;2024-03-25T03:54:17;35.92;;;18.52;;
78985;SDS011;68384;55.750;48.746;2024-03-25T03:55:18;31.52;;;16.92;;
78985;SDS011;68384;55.750;48.746;2024-03-25T03:56:20;31.42;;;17.42;;
78985;SDS011;68384;55.750;48.746;2024-03-25T03:57:21;32.63;;;17.42;;
78985;SDS011;68384;55.750;48.746;2024-03-25T03:58:23;31.95;;;16.60;;
78985;SDS011;68384;55.750;48.746;2024-03-25T03:59:26;29.58;;;16.73;;
78985;SDS011;68384;55.750;48.746;2024-03-25T04:00:27;34.17;;;16.88;;
78985;SDS011;68384;55.750;48.746;2024-03-25T04:01:28;41.55;;;18.10;;
78985;SDS011;68384;55.750;48.746;2024-03-25T04:02:29;30.75;;;16.77;;
78985;SDS011;68384;55.750;48.746;2024-03-25T04:03:31;35.15;;;18.60;;
78985;SDS011;68384;55.750;48.746;2024-03-25T04:04:32;36.10;;;16.80;;
78985;SDS011;68384;55.750;48.746;2024-03-25T04:05:33;34.67;;;16.42;;
78985;SDS011;68384;55.750;48.746;2024-03-25T04:06:34;32.92;;;16.25;;
78985;SDS011;68384;55.750;48.746;2024-03-25T04:07:35;33.83;;;16.83;;
78985;SDS011;68384;55.750;48.746;2024-03-25T04:08:37;30.17;;;16.33;;
78985;SDS011;68384;55.750;48.746;2024-03-25T04:09:39;32.50;;;16.40;;
78985;SDS011;68384;55.750;48.746;2024-03-25T04:10:42;34.08;;;18.70;;
78985;SDS011;68384;55.750;48.746;2024-03-25T04:12:46;32.45;;;17.10;;
78985;SDS011;68384;55.750;48.746;2024-03-25T04:13:47;30.42;;;16.80;;
78985;SDS011;68384;55.750;48.746;2024-03-25T04:14:48;31.52;;;17.13;;
78985;SDS011;68384;55.750;48.746;2024-03-25T04:15:59;35.75;;;16.13;;
78985;SDS011;68384;55.750;48.746;2024-03-25T04:17:03;37.88;;;17.55;;
78985;SDS011;68384;55.750;48.746;2024-03-25T04:18:04;30.38;;;16.83;;
78985;SDS011;68384;55.750;48.746;2024-03-25T04:19:05;31.25;;;15.98;;
78985;SDS011;68384;55.750;48.746;2024-03-25T04:20:07;41.40;;;17.58;;
78985;SDS011;68384;55.750;48.746;2024-03-25T04:21:11;30.58;;;16.80;;
78985;SDS011;68384;55.750;48.746;2024-03-25T04:22:13;33.78;;;17.35;;
78985;SDS011;68384;55.750;48.746;2024-03-25T04:23:16;31.80;;;17.52;;
78985;SDS011;68384;55.750;48.746;2024-03-25T04:24:17;31.08;;;16.40;;
78985;SDS011;68384;55.750;48.746;2024-03-25T04:25:19;32.58;;;17.98;;
78985;SDS011;68384;55.750;48.746;2024-03-25T04:26:20;31.23;;;17.38;;
78985;SDS011;68384;55.750;48.746;2024-03-25T04:27:21;30.10;;;17.13;;
78985;SDS011;68384;55.750;48.746;2024-03-25T04:28:25;28.98;;;16.52;;
78985;SDS011;68384;55.750;48.746;2024-03-25T04:29:26;31.65;;;16.83;;
78985;SDS011;68384;55.750;48.746;2024-03-25T04:30:27;33.08;;;16.13;;
78985;SDS011;68384;55.750;48.746;2024-03-25T04:31:28;32.30;;;16.52;;
78985;SDS011;68384;55.750;48.746;2024-03-25T04:32:29;29.45;;;15.75;;
78985;SDS011;68384;55.750;48.746;2024-03-25T04:33:30;31.55;;;16.55;;
78985;SDS011;68384;55.750;48.746;2024-03-25T04:34:31;35.85;;;17.88;;
78985;SDS011;68384;55.750;48.746;2024-03-25T04:35:32;30.88;;;16.50;;
78985;SDS011;68384;55.750;48.746;2024-03-25T04:36:33;29.17;;;16.98;;
78985;SDS011;68384;55.750;48.746;2024-03-25T04:37:35;30.90;;;14.88;;
78985;SDS011;68384;55.750;48.746;2024-03-25T04:38:36;29.02;;;16.77;;
78985;SDS011;68384;55.750;48.746;2024-03-25T04:39:37;33.35;;;14.98;;
78985;SDS011;68384;55.750;48.746;2024-03-25T04:40:38;31.35;;;17.25;;
78985;SDS011;68384;55.750;48.746;2024-03-25T04:41:39;29.20;;;16.38;;
78985;SDS011;68384;55.750;48.746;2024-03-25T04:42:41;33.10;;;16.48;;
78985;SDS011;68384;55.750;48.746;2024-03-25T04:43:42;28.35;;;15.75;;
78985;SDS011;68384;55.750;48.746;2024-03-25T04:44:43;32.20;;;16.40;;
78985;SDS011;68384;55.750;48.746;2024-03-25T04:45:44;29.77;;;16.42;;
78985;SDS011;68384;55.750;48.746;2024-03-25T04:46:46;31.67;;;16.67;;
78985;SDS011;68384;55.750;48.746;2024-03-25T04:47:47;31.00;;;17.00;;
78985;SDS011;68384;55.750;48.746;2024-03-25T04:48:48;29.10;;;15.50;;
78985;SDS011;68384;55.750;48.746;2024-03-25T04:49:49;29.10;;;15.98;;
78985;SDS011;68384;55.750;48.746;2024-03-25T04:50:51;29.63;;;15.77;;
78985;SDS011;68384;55.750;48.746;2024-03-25T04:51:52;32.17;;;16.55;;
78985;SDS011;68384;55.750;48.746;2024-03-25T04:52:54;28.35;;;16.33;;
78985;SDS011;68384;55.750;48.746;2024-03-25T04:53:55;29.80;;;16.33;;
78985;SDS011;68384;55.750;48.746;2024-03-25T04:54:56;29.98;;;16.55;;
78985;SDS011;68384;55.750;48.746;2024-03-25T04:55:58;30.92;;;15.38;;
78985;SDS011;68384;55.750;48.746;2024-03-25T04:56:59;32.22;;;16.52;;
78985;SDS011;68384;55.750;48.746;2024-03-25T04:58:02;29.60;;;16.95;;
78985;SDS011;68384;55.750;48.746;2024-03-25T04:59:04;27.65;;;14.95;;
78985;SDS011;68384;55.750;48.746;2024-03-25T05:00:05;25.55;;;15.43;;
78985;SDS011;68384;55.750;48.746;2024-03-25T05:01:07;26.90;;;14.45;;
78985;SDS011;68384;55.750;48.746;2024-03-25T05:02:09;27.58;;;14.52;;
78985;SDS011;68384;55.750;48.746;2024-03-25T05:03:10;29.05;;;15.75;;
78985;SDS011;68384;55.750;48.746;2024-03-25T05:04:11;28.73;;;14.70;;
78985;SDS011;68384;55.750;48.746;2024-03-25T05:05:13;28.42;;;15.20;;
78985;SDS011;68384;55.750;48.746;2024-03-25T05:06:15;27.98;;;15.23;;
78985;SDS011;68384;55.750;48.746;2024-03-25T05:07:16;27.85;;;16.10;;
78985;SDS011;68384;55.750;48.746;2024-03-25T05:08:17;32.08;;;15.40;;
78985;SDS011;68384;55.750;48.746;2024-03-25T05:09:18;28.35;;;14.93;;
78985;SDS011;68384;55.750;48.746;2024-03-25T05:10:20;30.80;;;16.10;;
78985;SDS011;68384;55.750;48.746;2024-03-25T05:11:22;32.40;;;16.20;;
78985;SDS011;68384;55.750;48.746;2024-03-25T05:12:23;26.35;;;14.68;;
78985;SDS011;68384;55.750;48.746;2024-03-25T05:13:24;27.75;;;15.82;;
78985;SDS011;68384;55.750;48.746;2024-03-25T05:14:25;25.60;;;14.93;;
78985;SDS011;68384;55.750;48.746;2024-03-25T05:15:27;26.33;;;14.20;;
78985;SDS011;68384;55.750;48.746;2024-03-25T05:16:29;27.73;;;15.20;;
78985;SDS011;68384;55.750;48.746;2024-03-25T05:17:30;28.77;;;15.23;;
78985;SDS011;68384;55.750;48.746;2024-03-25T05:18:31;28.10;;;15.95;;
78985;SDS011;68384;55.750;48.746;2024-03-25T05:19:32;28.10;;;15.23;;
78985;SDS011;68384;55.750;48.746;2024-03-25T05:20:34;27.77;;;14.63;;
78985;SDS011;68384;55.750;48.746;2024-03-25T05:21:35;31.10;;;15.25;;
78985;SDS011;68384;55.750;48.746;2024-03-25T05:22:36;28.20;;;15.20;;
78985;SDS011;68384;55.750;48.746;2024-03-25T05:23:37;27.50;;;14.30;;
78985;SDS011;68384;55.750;48.746;2024-03-25T05:24:39;25.25;;;15.02;;
78985;SDS011;68384;55.750;48.746;2024-03-25T05:25:40;26.90;;;14.70;;
78985;SDS011;68384;55.750;48.746;2024-03-25T05:26:41;27.73;;;14.88;;
78985;SDS011;68384;55.750;48.746;2024-03-25T05:27:42;28.15;;;14.93;;
78985;SDS011;68384;55.750;48.746;2024-03-25T05:28:43;28.80;;;15.45;;
78985;SDS011;68384;55.750;48.746;2024-03-25T05:29:45;25.02;;;14.60;;
78985;SDS011;68384;55.750;48.746;2024-03-25T05:30:45;27.30;;;14.40;;
78985;SDS011;68384;55.750;48.746;2024-03-25T05:33:18;26.38;;;14.52;;
78985;SDS011;68384;55.750;48.746;2024-03-25T05:34:19;28.88;;;14.70;;
78985;SDS011;68384;55.750;48.746;2024-03-25T05:35:20;28.13;;;15.32;;
78985;SDS011;68384;55.750;48.746;2024-03-25T05:36:22;29.23;;;15.13;;
78985;SDS011;68384;55.750;48.746;2024-03-25T05:37:23;30.70;;;15.85;;
78985;SDS011;68384;55.750;48.746;2024-03-25T05:38:24;30.02;;;14.75;;
78985;SDS011;68384;55.750;48.746;2024-03-25T05:39:25;30.50;;;15.80;;
78985;SDS011;68384;55.750;48.746;2024-03-25T05:40:26;28.58;;;15.50;;
78985;SDS011;68384;55.750;48.746;2024-03-25T05:41:27;28.17;;;13.93;;
78985;SDS011;68384;55.750;48.746;2024-03-25T05:42:29;27.80;;;15.52;;
78985;SDS011;68384;55.750;48.746;2024-03-25T05:43:30;25.80;;;14.85;;
78985;SDS011;68384;55.750;48.746;2024-03-25T05:44:32;30.65;;;16.23;;
78985;SDS011;68384;55.750;48.746;2024-03-25T05:45:34;26.88;;;15.43;;
78985;SDS011;68384;55.750;48.746;2024-03-25T05:46:35;28.25;;;14.50;;
78985;SDS011;68384;55.750;48.746;2024-03-25T05:47:36;29.52;;;14.45;;
78985;SDS011;68384;55.750;48.746;2024-03-25T05:48:37;27.02;;;15.13;;
78985;SDS011;68384;55.750;48.746;2024-03-25T05:49:38;26.00;;;14.23;;
78985;SDS011;68384;55.750;48.746;2024-03-25T05:50:40;25.63;;;13.98;;
78985;SDS011;68384;55.750;48.746;2024-03-25T05:51:41;29.55;;;15.05;;
78985;SDS011;68384;55.750;48.746;2024-03-25T05:52:42;25.10;;;14.40;;
78985;SDS011;68384;55.750;48.746;2024-03-25T05:53:43;30.58;;;15.77;;
78985;SDS011;68384;55.750;48.746;2024-03-25T05:54:45;27.63;;;15.73;;
78985;SDS011;68384;55.750;48.746;2024-03-25T05:55:46;25.17;;;14.77;;
78985;SDS011;68384;55.750;48.746;2024-03-25T05:56:47;25.23;;;14.27;;
78985;SDS011;68384;55.750;48.746;2024-03-25T05:57:48;26.75;;;15.02;;